Time;durP1;ratioP1;P1;durP2;ratioP2;P2;SDS_P1;SDS_P2;PMS_P1;PMS_P2;Temp;Humidity;BMP_temperature;BMP_pressure;BME280_temperature;BME280_humidity;BME280_pressure;Samples;Min_cycle;Max_cycle;Signal;HPM_P1;HPM_P2
2022/10/28 00:00:48;;;;;;;;;;;20.50;55.50;;;;;;5059864;28;19916;-91
2022/10/28 00:03:14;;;;;;;;;;;20.40;55.60;;;;;;5061521;28;19913;-89
2022/10/28 00:05:40;;;;;;;;;;;20.40;55.80;;;;;;5055449;28;19946;-87
2022/10/28 00:08:06;;;;;;;;;;;20.30;56.10;;;;;;5065422;28;19912;-88
2022/10/28 00:10:31;;;;;;;;;;;20.30;56.20;;;;;;5056075;28;19924;-90
2022/10/28 00:12:57;;;;;;;;;;;20.30;56.30;;;;;;5058230;28;19917;-90
2022/10/28 00:15:23;;;;;;;;;;;20.30;56.30;;;;;;5059618;28;20050;-87
2022/10/28 00:17:48;;;;;;;;;;;20.30;56.40;;;;;;5063704;28;19917;-91
2022/10/28 00:20:14;;;;;;;;;;;20.20;56.50;;;;;;5060246;28;19912;-89
2022/10/28 00:22:42;;;;;;;;;;;20.30;56.50;;;;;;5053908;28;19917;-89
2022/10/28 00:25:08;;;;;;;;;;;20.30;56.60;;;;;;5053965;28;19932;-90
2022/10/28 00:27:34;;;;;;;;;;;20.30;56.60;;;;;;5051348;28;19913;-91
2022/10/28 00:30:00;;;;;;;;;;;20.40;56.60;;;;;;5057975;28;19912;-91
2022/10/28 00:32:28;;;;;;;;;;;20.50;56.80;;;;;;5054814;28;19921;-89
2022/10/28 00:34:54;;;;;;;;;;;20.40;57.50;;;;;;5056178;28;19913;-90
2022/10/28 00:37:20;;;;;;;;;;;20.40;58.20;;;;;;5056319;28;19935;-90
2022/10/28 00:39:45;;;;;;;;;;;20.30;59.00;;;;;;5056208;28;19913;-89
2022/10/28 00:42:14;;;;;;;;;;;20.20;59.20;;;;;;5057562;28;20063;-90
2022/10/28 00:44:45;;;;;;;;;;;20.20;59.30;;;;;;5064153;28;19915;-89
2022/10/28 00:47:13;;;;;;;;;;;20.10;59.60;;;;;;5055326;28;19920;-90
2022/10/28 00:49:39;;;;;;;;;;;20.10;60.00;;;;;;5057678;28;19932;-89
2022/10/28 00:52:08;;;;;;;;;;;20.00;60.30;;;;;;5054459;28;20011;-89
2022/10/28 00:54:36;;;;;;;;;;;20.00;60.60;;;;;;5064112;28;19913;-89
2022/10/28 00:57:04;;;;;;;;;;;20.00;60.90;;;;;;5069577;28;20369;-90
2022/10/28 00:59:33;;;;;;;;;;;19.90;61.20;;;;;;5059404;28;20505;-88
2022/10/28 01:01:59;;;;;;;;;;;19.90;61.30;;;;;;5054527;28;19916;-89
2022/10/28 01:04:25;;;;;;;;;;;19.90;61.50;;;;;;5066774;28;19916;-90
2022/10/28 01:06:52;;;;;;;;;;;19.90;61.70;;;;;;5069552;28;20015;-90
2022/10/28 01:09:19;;;;;;;;;;;19.90;61.90;;;;;;5058646;28;19912;-88
2022/10/28 01:11:52;;;;;;;;;;;19.90;62.20;;;;;;5051996;28;19924;-88
2022/10/28 01:14:26;;;;;;;;;;;19.90;62.40;;;;;;5071321;28;19912;-89
2022/10/28 01:17:01;;;;;;;;;;;19.90;62.60;;;;;;5049848;28;19913;-89
2022/10/28 01:19:29;;;;;;;;;;;19.90;63.00;;;;;;5067362;28;19916;-89
2022/10/28 01:22:04;;;;;;;;;;;19.90;63.10;;;;;;5074785;28;19916;-91
2022/10/28 01:24:30;;;;;;;;;;;19.90;63.30;;;;;;5068674;28;19923;-90
2022/10/28 01:27:05;;;;;;;;;;;20.00;63.40;;;;;;5061820;28;19920;-89
2022/10/28 01:29:37;;;;;;;;;;;20.10;63.50;;;;;;5051094;28;19909;-90
2022/10/28 01:32:03;;;;;;;;;;;20.20;63.50;;;;;;5060635;28;20003;-90
2022/10/28 01:34:29;;;;;;;;;;;20.20;63.50;;;;;;5066260;28;20408;-90
2022/10/28 01:37:13;;;;;;;;;;;20.20;63.40;;;;;;5062055;28;20351;-89
2022/10/28 01:40:01;;;;;;;;;;;20.30;63.40;;;;;;5059947;28;20593;-91
2022/10/28 01:42:41;;;;;;;;;;;20.30;63.40;;;;;;5056842;28;19917;-88
2022/10/28 01:45:12;;;;;;;;;;;20.30;63.50;;;;;;5054757;28;19913;-90
2022/10/28 01:47:46;;;;;;;;;;;20.30;63.50;;;;;;5057064;28;20378;-90
2022/10/28 01:50:22;;;;;;;;;;;20.20;63.60;;;;;;5061190;28;19919;-90
2022/10/28 01:52:48;;;;;;;;;;;20.30;63.50;;;;;;5054134;28;19920;-88
2022/10/28 01:55:16;;;;;;;;;;;20.30;63.50;;;;;;5054618;28;19932;-87
2022/10/28 01:57:42;;;;;;;;;;;20.30;63.50;;;;;;5069093;28;19916;-89
2022/10/28 02:00:08;;;;;;;;;;;20.30;63.60;;;;;;5066216;28;19914;-89
2022/10/28 02:02:35;;;;;;;;;;;20.30;63.70;;;;;;5062648;28;20382;-90
2022/10/28 02:05:02;;;;;;;;;;;20.40;63.70;;;;;;5062581;28;19920;-88
2022/10/28 02:07:28;;;;;;;;;;;20.40;63.70;;;;;;5049469;28;19917;-91
2022/10/28 02:10:03;;;;;;;;;;;20.40;63.70;;;;;;5058948;28;19916;-88
2022/10/28 02:12:30;;;;;;;;;;;20.40;63.70;;;;;;5071371;28;20575;-89
2022/10/28 02:14:56;;;;;;;;;;;20.40;63.70;;;;;;5074038;28;19916;-88
2022/10/28 02:17:35;;;;;;;;;;;20.40;63.80;;;;;;5063184;28;19917;-90
2022/10/28 02:20:11;;;;;;;;;;;20.40;63.70;;;;;;5063415;28;19940;-89
2022/10/28 02:23:00;;;;;;;;;;;20.50;63.80;;;;;;5069795;28;20278;-89
2022/10/28 02:25:44;;;;;;;;;;;20.50;63.70;;;;;;5061617;28;19976;-91
2022/10/28 02:28:20;;;;;;;;;;;20.50;63.70;;;;;;5062910;28;19916;-90
2022/10/28 02:31:12;;;;;;;;;;;20.50;63.60;;;;;;5074641;28;19924;-90
2022/10/28 02:33:40;;;;;;;;;;;20.50;63.50;;;;;;5067785;28;20313;-90
2022/10/28 02:36:08;;;;;;;;;;;20.50;63.40;;;;;;5066702;28;19912;-90
2022/10/28 02:38:36;;;;;;;;;;;20.50;63.30;;;;;;5057624;28;19916;-91
2022/10/28 02:41:03;;;;;;;;;;;20.50;63.30;;;;;;5058575;28;19955;-90
2022/10/28 02:43:31;;;;;;;;;;;20.50;63.30;;;;;;5072507;28;19951;-91
2022/10/28 02:45:59;;;;;;;;;;;20.50;63.40;;;;;;5066106;28;20367;-91
2022/10/28 02:48:34;;;;;;;;;;;20.40;63.30;;;;;;5065968;28;19973;-90
2022/10/28 02:51:04;;;;;;;;;;;20.40;63.50;;;;;;5066806;28;19939;-90
2022/10/28 02:53:32;;;;;;;;;;;20.40;63.50;;;;;;5057348;28;19916;-90
2022/10/28 02:55:59;;;;;;;;;;;20.50;63.60;;;;;;5057553;28;19917;-87
2022/10/28 02:58:24;;;;;;;;;;;20.40;63.60;;;;;;5060363;28;19942;-89
2022/10/28 03:00:50;;;;;;;;;;;20.50;63.60;;;;;;5059428;28;19964;-88
2022/10/28 03:03:16;;;;;;;;;;;20.50;63.50;;;;;;5056177;28;19936;-89
2022/10/28 03:05:42;;;;;;;;;;;20.50;63.50;;;;;;5063813;28;19925;-88
2022/10/28 03:08:08;;;;;;;;;;;20.50;63.40;;;;;;5053812;28;20570;-89
2022/10/28 03:10:33;;;;;;;;;;;20.50;63.40;;;;;;5065355;28;19916;-90
2022/10/28 03:12:59;;;;;;;;;;;20.50;63.40;;;;;;5063193;28;19913;-89
2022/10/28 03:15:25;;;;;;;;;;;20.50;63.20;;;;;;5078594;28;19931;-89
2022/10/28 03:17:51;;;;;;;;;;;20.40;63.00;;;;;;5063617;28;19913;-88
2022/10/28 03:20:17;;;;;;;;;;;20.40;63.00;;;;;;5066745;28;20275;-89
2022/10/28 03:22:43;;;;;;;;;;;20.30;63.00;;;;;;5067673;28;20432;-90
2022/10/28 03:25:08;;;;;;;;;;;20.30;63.00;;;;;;5060668;28;19917;-90
2022/10/28 03:27:34;;;;;;;;;;;20.30;63.00;;;;;;5060195;28;19913;-88
2022/10/28 03:30:01;;;;;;;;;;;20.30;63.10;;;;;;5060995;28;19912;-88
2022/10/28 03:32:26;;;;;;;;;;;20.30;63.10;;;;;;5076017;28;19924;-88
2022/10/28 03:34:53;;;;;;;;;;;20.30;63.00;;;;;;5076153;28;19919;-88
2022/10/28 03:37:18;;;;;;;;;;;20.30;62.90;;;;;;5075588;28;20070;-88
2022/10/28 03:39:44;;;;;;;;;;;20.30;62.90;;;;;;5072111;28;19979;-89
2022/10/28 03:42:10;;;;;;;;;;;20.20;62.90;;;;;;5052371;28;19960;-89
2022/10/28 03:44:37;;;;;;;;;;;20.20;62.90;;;;;;5063316;28;19962;-90
2022/10/28 03:47:02;;;;;;;;;;;20.20;62.90;;;;;;5061597;28;20258;-89
2022/10/28 03:49:30;;;;;;;;;;;20.20;62.90;;;;;;5069402;28;19981;-91
2022/10/28 03:51:56;;;;;;;;;;;20.20;63.10;;;;;;5061627;28;19916;-88
2022/10/28 03:54:22;;;;;;;;;;;20.30;63.20;;;;;;5060570;28;19916;-89
2022/10/28 03:56:48;;;;;;;;;;;20.30;63.20;;;;;;5051723;28;19970;-89
2022/10/28 03:59:13;;;;;;;;;;;20.30;63.30;;;;;;5070562;28;20405;-90
2022/10/28 04:01:46;;;;;;;;;;;20.30;63.10;;;;;;5081573;28;19916;-90
2022/10/28 04:04:13;;;;;;;;;;;20.30;62.90;;;;;;5058469;28;19917;-87
2022/10/28 04:06:38;;;;;;;;;;;20.20;62.60;;;;;;5067746;28;19920;-90
2022/10/28 04:09:05;;;;;;;;;;;20.20;62.60;;;;;;5054251;28;19913;-90
2022/10/28 04:11:30;;;;;;;;;;;20.10;62.40;;;;;;5073273;28;19978;-89
2022/10/28 04:13:56;;;;;;;;;;;20.10;62.40;;;;;;5071974;28;19909;-88
2022/10/28 04:16:22;;;;;;;;;;;20.00;62.40;;;;;;5072777;28;20279;-89
2022/10/28 04:18:48;;;;;;;;;;;20.00;62.50;;;;;;5055515;28;19915;-90
2022/10/28 04:21:13;;;;;;;;;;;19.90;62.40;;;;;;5065885;28;19908;-89
2022/10/28 04:23:39;;;;;;;;;;;19.90;62.30;;;;;;5087466;28;19917;-89
2022/10/28 04:26:05;;;;;;;;;;;19.80;62.30;;;;;;5059501;28;19929;-90
2022/10/28 04:28:33;;;;;;;;;;;19.80;62.40;;;;;;5054776;28;19939;-87
2022/10/28 04:31:00;;;;;;;;;;;19.80;62.60;;;;;;5074199;28;19917;-88
2022/10/28 04:33:27;;;;;;;;;;;19.80;62.70;;;;;;5073171;28;19971;-90
2022/10/28 04:35:56;;;;;;;;;;;19.90;62.90;;;;;;5075997;28;19925;-88
2022/10/28 04:38:22;;;;;;;;;;;19.90;63.00;;;;;;5060786;28;19929;-90
2022/10/28 04:40:51;;;;;;;;;;;19.90;63.00;;;;;;5057212;28;19932;-90
2022/10/28 04:43:16;;;;;;;;;;;19.90;63.10;;;;;;5057438;28;19982;-88
2022/10/28 04:45:42;;;;;;;;;;;20.00;63.10;;;;;;5061219;28;19936;-88
2022/10/28 04:48:08;;;;;;;;;;;20.00;63.20;;;;;;5059615;28;20139;-89
2022/10/28 04:50:34;;;;;;;;;;;20.00;63.40;;;;;;5056944;28;19971;-90
2022/10/28 04:53:00;;;;;;;;;;;20.10;63.40;;;;;;5062511;28;19913;-91
2022/10/28 04:55:27;;;;;;;;;;;20.10;63.30;;;;;;5068211;28;20454;-88
2022/10/28 04:57:55;;;;;;;;;;;20.20;63.30;;;;;;5055377;28;19916;-88
2022/10/28 05:00:21;;;;;;;;;;;20.20;63.30;;;;;;5058336;28;19920;-90
2022/10/28 05:02:49;;;;;;;;;;;20.20;63.20;;;;;;5055003;28;19919;-88
2022/10/28 05:05:15;;;;;;;;;;;20.30;63.20;;;;;;5054701;28;19929;-88
2022/10/28 05:07:40;;;;;;;;;;;20.30;63.30;;;;;;5064114;28;19917;-87
2022/10/28 05:10:08;;;;;;;;;;;20.40;63.30;;;;;;5060433;28;19944;-88
2022/10/28 05:12:34;;;;;;;;;;;20.30;63.20;;;;;;5072501;28;19916;-87
2022/10/28 05:15:00;;;;;;;;;;;20.30;63.20;;;;;;5063272;28;19912;-88
2022/10/28 05:17:25;;;;;;;;;;;20.30;62.90;;;;;;5057262;28;20007;-88
2022/10/28 05:19:51;;;;;;;;;;;20.20;62.70;;;;;;5061661;28;19912;-89
2022/10/28 05:22:16;;;;;;;;;;;20.20;62.40;;;;;;5061678;28;19917;-88
2022/10/28 05:24:42;;;;;;;;;;;20.10;62.20;;;;;;5055884;28;19924;-89
2022/10/28 05:27:08;;;;;;;;;;;20.10;62.20;;;;;;5064243;28;19998;-89
2022/10/28 05:29:34;;;;;;;;;;;20.00;62.20;;;;;;5057944;28;19940;-88
2022/10/28 05:31:59;;;;;;;;;;;19.90;62.20;;;;;;5066722;28;20282;-90
2022/10/28 05:34:26;;;;;;;;;;;19.80;62.20;;;;;;5054631;28;19913;-89
2022/10/28 05:36:51;;;;;;;;;;;19.80;62.10;;;;;;5053537;28;19921;-87
2022/10/28 05:39:17;;;;;;;;;;;19.80;62.20;;;;;;5060918;28;19916;-87
2022/10/28 05:41:43;;;;;;;;;;;19.70;62.20;;;;;;5049431;28;20169;-89
2022/10/28 05:44:08;;;;;;;;;;;19.70;62.30;;;;;;5059755;28;20636;-89
2022/10/28 05:46:34;;;;;;;;;;;19.70;62.40;;;;;;5048255;28;19932;-89
2022/10/28 05:49:00;;;;;;;;;;;19.60;62.40;;;;;;5057348;28;20028;-89
2022/10/28 05:51:25;;;;;;;;;;;19.60;62.50;;;;;;5057252;28;19925;-89
2022/10/28 05:53:51;;;;;;;;;;;19.60;62.60;;;;;;5049069;28;20379;-88
2022/10/28 05:56:17;;;;;;;;;;;19.50;62.60;;;;;;5059709;28;19928;-89
2022/10/28 05:58:46;;;;;;;;;;;19.50;62.60;;;;;;5053129;28;20369;-89
2022/10/28 06:01:12;;;;;;;;;;;19.50;62.50;;;;;;5054227;28;19928;-89
2022/10/28 06:03:37;;;;;;;;;;;19.40;62.40;;;;;;5049024;28;19917;-89
2022/10/28 06:06:03;;;;;;;;;;;19.40;62.60;;;;;;5054491;28;19928;-88
2022/10/28 06:08:29;;;;;;;;;;;19.40;62.60;;;;;;5052046;28;20363;-87
2022/10/28 06:10:55;;;;;;;;;;;19.40;62.70;;;;;;5054574;28;19931;-89
2022/10/28 06:13:20;;;;;;;;;;;19.40;62.90;;;;;;5053324;28;19917;-90
2022/10/28 06:15:50;;;;;;;;;;;19.40;63.00;;;;;;5054426;28;19964;-89
2022/10/28 06:18:15;;;;;;;;;;;19.40;63.10;;;;;;5054682;28;19924;-89
2022/10/28 06:20:41;;;;;;;;;;;19.40;63.10;;;;;;5062661;28;19920;-88
2022/10/28 06:23:07;;;;;;;;;;;19.40;63.20;;;;;;5051827;28;19920;-89
2022/10/28 06:25:33;;;;;;;;;;;19.40;63.10;;;;;;5052764;28;19970;-88
2022/10/28 06:28:01;;;;;;;;;;;19.50;63.20;;;;;;5052922;28;20298;-88
2022/10/28 06:30:27;;;;;;;;;;;19.50;63.20;;;;;;5054650;28;20028;-89
2022/10/28 06:32:56;;;;;;;;;;;19.50;63.20;;;;;;5059676;28;19932;-89
2022/10/28 06:35:22;;;;;;;;;;;19.50;63.30;;;;;;5057178;28;20166;-89
2022/10/28 06:37:47;;;;;;;;;;;19.50;63.60;;;;;;5050124;28;19920;-88
2022/10/28 06:40:14;;;;;;;;;;;19.70;63.90;;;;;;5056394;28;19950;-89
2022/10/28 06:42:41;;;;;;;;;;;19.70;64.20;;;;;;5053235;28;20016;-88
2022/10/28 06:45:07;;;;;;;;;;;19.90;64.50;;;;;;5051793;28;19924;-88
2022/10/28 06:47:32;;;;;;;;;;;20.10;64.80;;;;;;5056827;28;19924;-88
2022/10/28 06:49:58;;;;;;;;;;;20.30;65.10;;;;;;5053061;28;19916;-89
2022/10/28 06:52:24;;;;;;;;;;;20.40;65.30;;;;;;5048144;28;20387;-88
2022/10/28 06:54:50;;;;;;;;;;;20.70;65.40;;;;;;5061833;28;19921;-89
2022/10/28 06:57:16;;;;;;;;;;;21.00;65.70;;;;;;5053299;28;19923;-88
2022/10/28 06:59:42;;;;;;;;;;;21.30;65.80;;;;;;5062002;28;19920;-90
2022/10/28 07:02:09;;;;;;;;;;;21.60;65.90;;;;;;5057925;28;19962;-90
2022/10/28 07:04:34;;;;;;;;;;;21.90;66.00;;;;;;5061109;28;19921;-88
2022/10/28 07:07:00;;;;;;;;;;;22.20;65.50;;;;;;5057297;28;19925;-90
2022/10/28 07:09:26;;;;;;;;;;;22.30;64.80;;;;;;5058085;28;20287;-89
2022/10/28 07:11:51;;;;;;;;;;;22.50;64.50;;;;;;5056197;28;19975;-90
2022/10/28 07:14:17;;;;;;;;;;;22.60;64.20;;;;;;5057754;28;20367;-89
2022/10/28 07:16:43;;;;;;;;;;;22.70;64.00;;;;;;5058044;28;20019;-89
2022/10/28 07:19:08;;;;;;;;;;;22.90;64.10;;;;;;5061394;28;19916;-89
2022/10/28 07:21:34;;;;;;;;;;;23.10;64.30;;;;;;5082302;28;19992;-89
2022/10/28 07:24:00;;;;;;;;;;;23.30;64.30;;;;;;5074450;28;19966;-89
2022/10/28 07:26:26;;;;;;;;;;;23.50;64.10;;;;;;5070951;28;20019;-90
2022/10/28 07:28:52;;;;;;;;;;;23.70;63.80;;;;;;5066690;28;19950;-88
2022/10/28 07:31:18;;;;;;;;;;;23.80;63.50;;;;;;5053220;28;20554;-89
2022/10/28 07:33:43;;;;;;;;;;;23.80;63.20;;;;;;5067695;28;19923;-88
2022/10/28 07:36:09;;;;;;;;;;;23.90;62.80;;;;;;5066656;28;19971;-89
2022/10/28 07:38:35;;;;;;;;;;;23.80;62.40;;;;;;5062058;28;19917;-89
2022/10/28 07:41:04;;;;;;;;;;;23.80;62.20;;;;;;5056495;28;19921;-89
2022/10/28 07:43:30;;;;;;;;;;;23.80;62.50;;;;;;5061105;28;19920;-87
2022/10/28 07:45:55;;;;;;;;;;;24.00;63.90;;;;;;5055421;28;20284;-88
2022/10/28 07:48:22;;;;;;;;;;;24.30;64.90;;;;;;5069077;28;19909;-89
2022/10/28 07:50:47;;;;;;;;;;;24.70;64.70;;;;;;5048369;28;19917;-90
2022/10/28 07:53:13;;;;;;;;;;;25.10;63.90;;;;;;5050392;28;19966;-88
2022/10/28 07:55:39;;;;;;;;;;;25.40;63.80;;;;;;5066904;28;19921;-88
2022/10/28 07:58:04;;;;;;;;;;;25.80;63.60;;;;;;5059066;28;19920;-89
2022/10/28 08:00:30;;;;;;;;;;;26.30;63.50;;;;;;5064113;28;19926;-89
2022/10/28 08:02:56;;;;;;;;;;;26.80;63.00;;;;;;5061343;28;19986;-89
2022/10/28 08:05:21;;;;;;;;;;;27.30;62.00;;;;;;5063280;28;19963;-89
2022/10/28 08:07:47;;;;;;;;;;;27.70;60.10;;;;;;5055414;28;19913;-89
2022/10/28 08:10:13;;;;;;;;;;;28.10;59.10;;;;;;5051053;28;19925;-89
2022/10/28 08:12:39;;;;;;;;;;;28.50;59.10;;;;;;5060498;28;19943;-88
2022/10/28 08:15:04;;;;;;;;;;;28.90;58.50;;;;;;5052763;28;19925;-89
2022/10/28 08:17:30;;;;;;;;;;;29.40;58.00;;;;;;5061660;28;19916;-88
2022/10/28 08:19:56;;;;;;;;;;;29.80;56.50;;;;;;5065578;28;20410;-88
2022/10/28 08:22:22;;;;;;;;;;;30.30;55.90;;;;;;5060503;28;19963;-89
2022/10/28 08:24:47;;;;;;;;;;;30.70;55.40;;;;;;5060008;28;19998;-89
2022/10/28 08:27:13;;;;;;;;;;;31.10;54.10;;;;;;5054549;28;19917;-89
2022/10/28 08:29:38;;;;;;;;;;;31.50;53.00;;;;;;5059560;28;19958;-89
2022/10/28 08:32:06;;;;;;;;;;;31.90;52.30;;;;;;5054698;28;19916;-87
2022/10/28 08:34:32;;;;;;;;;;;32.20;50.90;;;;;;5057320;28;20521;-88
2022/10/28 08:36:57;;;;;;;;;;;32.60;49.30;;;;;;5065023;28;19916;-87
2022/10/28 08:39:23;;;;;;;;;;;32.90;48.00;;;;;;5067553;28;19916;-88
2022/10/28 08:41:58;;;;;;;;;;;33.20;47.00;;;;;;5061794;28;19913;-90
2022/10/28 08:44:23;;;;;;;;;;;33.40;46.50;;;;;;5054995;28;19913;-88
2022/10/28 08:46:55;;;;;;;;;;;33.70;45.10;;;;;;5066715;28;19920;-89
2022/10/28 08:49:22;;;;;;;;;;;33.90;43.70;;;;;;5055453;28;19916;-88
2022/10/28 08:51:59;;;;;;;;;;;34.10;42.50;;;;;;5056674;28;20381;-88
2022/10/28 08:54:46;;;;;;;;;;;34.20;41.00;;;;;;5051321;28;19923;-90
2022/10/28 08:57:15;;;;;;;;;;;34.20;40.10;;;;;;5068198;28;20485;-87
2022/10/28 08:59:41;;;;;;;;;;;34.30;40.40;;;;;;5071583;28;20686;-86
2022/10/28 09:02:10;;;;;;;;;;;34.40;39.80;;;;;;5067658;28;20629;-89
2022/10/28 09:04:42;;;;;;;;;;;34.50;39.00;;;;;;5063223;28;19978;-89
2022/10/28 09:07:12;;;;;;;;;;;34.40;37.20;;;;;;5059863;28;19959;-89
2022/10/28 09:09:38;;;;;;;;;;;34.50;36.80;;;;;;5050637;28;19966;-89
2022/10/28 09:12:15;;;;;;;;;;;34.60;37.10;;;;;;5054846;28;19916;-88
2022/10/28 09:14:59;;;;;;;;;;;34.60;35.60;;;;;;5047124;28;19998;-90
2022/10/28 09:17:27;;;;;;;;;;;34.70;35.40;;;;;;5049413;28;20364;-89
2022/10/28 09:19:59;;;;;;;;;;;34.70;35.30;;;;;;5048174;28;19971;-88
2022/10/28 09:22:33;;;;;;;;;;;34.70;34.20;;;;;;5048700;28;19960;-89
2022/10/28 09:25:12;;;;;;;;;;;34.90;34.30;;;;;;5066297;28;20023;-88
2022/10/28 09:27:55;;;;;;;;;;;35.00;32.90;;;;;;5070030;28;19989;-88
2022/10/28 09:30:23;;;;;;;;;;;35.10;32.50;;;;;;5066900;28;19920;-89
2022/10/28 09:33:07;;;;;;;;;;;35.10;31.90;;;;;;5049766;28;20018;-88
2022/10/28 09:35:37;;;;;;;;;;;35.10;32.20;;;;;;5067926;28;19920;-89
2022/10/28 09:38:08;;;;;;;;;;;35.10;31.80;;;;;;5068506;28;20279;-88
2022/10/28 09:40:35;;;;;;;;;;;35.20;32.30;;;;;;5068882;28;19921;-88
2022/10/28 09:43:07;;;;;;;;;;;35.00;30.90;;;;;;5067758;28;19912;-89
2022/10/28 09:45:34;;;;;;;;;;;34.80;30.60;;;;;;5057039;28;20391;-87
2022/10/28 09:48:18;;;;;;;;;;;34.60;30.90;;;;;;5050349;28;19926;-87
2022/10/28 09:50:46;;;;;;;;;;;34.40;31.00;;;;;;5047362;28;19928;-88
2022/10/28 09:53:31;;;;;;;;;;;34.30;32.00;;;;;;5046418;28;19997;-88
2022/10/28 09:55:56;;;;;;;;;;;34.40;31.40;;;;;;5049437;28;19945;-88
2022/10/28 09:58:22;;;;;;;;;;;34.30;30.80;;;;;;5050719;28;19987;-88
2022/10/28 10:00:48;;;;;;;;;;;34.30;30.90;;;;;;5061622;28;19912;-89
2022/10/28 10:03:15;;;;;;;;;;;34.30;31.30;;;;;;5068686;28;20429;-88
2022/10/28 10:05:42;;;;;;;;;;;34.30;30.60;;;;;;5069030;28;19920;-88
2022/10/28 10:08:11;;;;;;;;;;;34.40;31.30;;;;;;5069580;28;19919;-88
2022/10/28 10:10:59;;;;;;;;;;;34.70;31.10;;;;;;5067227;28;19919;-87
2022/10/28 10:13:29;;;;;;;;;;;34.80;30.50;;;;;;5055082;28;19913;-89
2022/10/28 10:15:58;;;;;;;;;;;35.10;30.30;;;;;;5067142;28;20069;-88
2022/10/28 10:18:27;;;;;;;;;;;35.30;29.90;;;;;;5056000;28;19944;-88
2022/10/28 10:20:57;;;;;;;;;;;35.40;29.40;;;;;;5047433;28;19921;-88
2022/10/28 10:23:33;;;;;;;;;;;35.40;28.70;;;;;;5058646;28;19924;-87
2022/10/28 10:26:10;;;;;;;;;;;35.40;28.90;;;;;;5067045;28;19928;-89
2022/10/28 10:28:41;;;;;;;;;;;35.60;29.30;;;;;;5068197;28;20267;-89
2022/10/28 10:31:15;;;;;;;;;;;35.70;28.90;;;;;;5062886;28;19952;-88
2022/10/28 10:33:40;;;;;;;;;;;35.80;28.90;;;;;;5064891;28;19944;-88
2022/10/28 10:36:09;;;;;;;;;;;35.90;28.10;;;;;;5071306;28;19967;-89
2022/10/28 10:38:36;;;;;;;;;;;36.10;28.70;;;;;;5059137;28;20433;-87
2022/10/28 10:41:02;;;;;;;;;;;36.30;28.90;;;;;;5054968;28;19991;-88
2022/10/28 10:43:34;;;;;;;;;;;36.50;28.50;;;;;;5062397;28;20016;-88
2022/10/28 10:46:13;;;;;;;;;;;36.30;27.80;;;;;;5058636;28;19921;-89
2022/10/28 10:48:39;;;;;;;;;;;36.10;27.90;;;;;;5049932;28;19949;-88
2022/10/28 10:51:25;;;;;;;;;;;36.10;28.40;;;;;;5051167;28;19952;-89
2022/10/28 10:53:54;;;;;;;;;;;36.00;27.80;;;;;;5053242;28;19966;-89
2022/10/28 10:56:30;;;;;;;;;;;35.90;28.20;;;;;;5051147;28;19912;-89
2022/10/28 10:58:57;;;;;;;;;;;35.80;28.40;;;;;;5055020;28;20551;-88
2022/10/28 11:01:25;;;;;;;;;;;35.90;28.70;;;;;;5072004;28;19927;-89
2022/10/28 11:03:58;;;;;;;;;;;36.00;28.90;;;;;;5073109;28;19916;-89
2022/10/28 11:06:29;;;;;;;;;;;36.20;28.70;;;;;;5069777;28;19920;-89
2022/10/28 11:08:59;;;;;;;;;;;36.30;28.50;;;;;;5074888;28;19916;-90
2022/10/28 11:11:35;;;;;;;;;;;36.20;28.00;;;;;;5073625;28;19912;-89
2022/10/28 11:14:02;;;;;;;;;;;35.80;27.70;;;;;;5069269;28;19998;-89
2022/10/28 11:16:30;;;;;;;;;;;35.40;28.10;;;;;;5078663;28;19919;-88
2022/10/28 11:18:55;;;;;;;;;;;35.20;28.40;;;;;;5071425;28;19958;-89
2022/10/28 11:21:21;;;;;;;;;;;35.00;28.00;;;;;;5068969;28;19912;-90
2022/10/28 11:23:49;;;;;;;;;;;34.80;28.40;;;;;;5072604;28;19966;-89
2022/10/28 11:26:16;;;;;;;;;;;34.60;28.80;;;;;;5070960;28;19921;-88
2022/10/28 11:28:52;;;;;;;;;;;34.40;29.00;;;;;;5073341;28;19942;-90
2022/10/28 11:31:37;;;;;;;;;;;34.40;29.30;;;;;;5069109;28;20022;-89
2022/10/28 11:34:06;;;;;;;;;;;34.50;29.00;;;;;;5064419;28;20014;-88
2022/10/28 11:36:58;;;;;;;;;;;34.50;29.00;;;;;;5069868;28;20434;-88
2022/10/28 11:39:33;;;;;;;;;;;34.60;28.90;;;;;;5072116;28;19917;-90
2022/10/28 11:42:04;;;;;;;;;;;34.50;28.80;;;;;;5072876;28;19920;-89
2022/10/28 11:44:48;;;;;;;;;;;34.50;28.90;;;;;;5064067;28;19999;-89
2022/10/28 11:47:14;;;;;;;;;;;34.50;29.20;;;;;;5047319;28;20361;-90
2022/10/28 11:49:42;;;;;;;;;;;34.40;29.20;;;;;;5050154;28;20016;-89
2022/10/28 11:52:26;;;;;;;;;;;34.40;28.90;;;;;;5048289;28;19917;-89
2022/10/28 11:54:59;;;;;;;;;;;34.20;28.90;;;;;;5048770;28;19923;-89
2022/10/28 11:57:43;;;;;;;;;;;34.00;29.00;;;;;;5048198;28;19927;-89
2022/10/28 12:00:21;;;;;;;;;;;33.90;29.30;;;;;;5050312;28;19917;-89
2022/10/28 12:02:49;;;;;;;;;;;33.90;29.50;;;;;;5048902;28;19916;-88
2022/10/28 12:05:29;;;;;;;;;;;34.00;29.50;;;;;;5047998;28;20083;-89
2022/10/28 12:08:13;;;;;;;;;;;34.10;29.60;;;;;;5047604;28;19923;-89
2022/10/28 12:11:01;;;;;;;;;;;34.10;29.30;;;;;;5049226;28;19920;-89
2022/10/28 12:13:47;;;;;;;;;;;34.00;29.50;;;;;;5050383;28;19913;-90
2022/10/28 12:16:13;;;;;;;;;;;34.10;29.50;;;;;;5057525;28;19928;-89
2022/10/28 12:18:51;;;;;;;;;;;33.90;29.10;;;;;;5067642;28;19912;-89
2022/10/28 12:21:21;;;;;;;;;;;33.80;29.30;;;;;;5067967;28;19966;-89
2022/10/28 12:23:48;;;;;;;;;;;33.50;29.80;;;;;;5071300;28;20685;-88
2022/10/28 12:26:15;;;;;;;;;;;33.30;30.20;;;;;;5070580;28;19928;-90
2022/10/28 12:28:43;;;;;;;;;;;33.10;30.50;;;;;;5074007;28;19916;-89
2022/10/28 12:31:35;;;;;;;;;;;33.00;30.80;;;;;;5088214;28;19920;-89
2022/10/28 12:34:03;;;;;;;;;;;32.80;31.00;;;;;;5079939;28;19948;-89
2022/10/28 12:36:45;;;;;;;;;;;32.70;31.20;;;;;;5072285;28;19921;-89
2022/10/28 12:39:14;;;;;;;;;;;32.60;31.20;;;;;;5071148;28;20003;-88
2022/10/28 12:41:44;;;;;;;;;;;32.40;31.40;;;;;;5071562;28;19927;-88
2022/10/28 12:44:14;;;;;;;;;;;32.30;31.60;;;;;;5066573;28;19961;-89
2022/10/28 12:46:47;;;;;;;;;;;32.20;31.90;;;;;;5051256;28;20315;-89
2022/10/28 12:49:22;;;;;;;;;;;32.20;32.10;;;;;;5052271;28;19916;-89
2022/10/28 12:51:47;;;;;;;;;;;32.20;32.40;;;;;;5070122;28;19916;-88
2022/10/28 12:54:27;;;;;;;;;;;32.10;32.40;;;;;;5069512;28;19916;-89
2022/10/28 12:57:05;;;;;;;;;;;32.10;32.60;;;;;;5068676;28;19925;-88
2022/10/28 12:59:39;;;;;;;;;;;32.10;32.70;;;;;;5069971;28;19912;-89
2022/10/28 13:02:12;;;;;;;;;;;32.10;32.90;;;;;;5068821;28;19924;-88
2022/10/28 13:04:38;;;;;;;;;;;32.10;33.00;;;;;;5072157;28;19913;-89
2022/10/28 13:07:12;;;;;;;;;;;32.10;33.00;;;;;;5071075;28;19935;-88
2022/10/28 13:10:01;;;;;;;;;;;32.10;33.20;;;;;;5074818;28;19916;-89
2022/10/28 13:12:27;;;;;;;;;;;32.20;33.30;;;;;;5043999;28;19928;-89
2022/10/28 13:14:53;;;;;;;;;;;32.20;33.40;;;;;;5049130;28;19917;-90
2022/10/28 13:17:30;;;;;;;;;;;32.20;33.20;;;;;;5049379;28;20015;-88
2022/10/28 13:19:59;;;;;;;;;;;32.30;33.30;;;;;;5050274;28;19963;-89
2022/10/28 13:22:24;;;;;;;;;;;32.30;33.30;;;;;;5051486;28;20329;-88
2022/10/28 13:24:53;;;;;;;;;;;32.20;33.20;;;;;;5049741;28;20371;-89
2022/10/28 13:27:20;;;;;;;;;;;32.20;33.10;;;;;;5047728;28;22313;-90
2022/10/28 13:29:57;;;;;;;;;;;32.20;33.30;;;;;;5049898;28;20012;-91
2022/10/28 13:32:31;;;;;;;;;;;32.20;33.40;;;;;;5048192;28;20265;-89
2022/10/28 13:35:01;;;;;;;;;;;32.30;33.40;;;;;;5065871;28;19958;-88
2022/10/28 13:37:31;;;;;;;;;;;32.20;33.30;;;;;;5067465;28;19920;-89
2022/10/28 13:40:00;;;;;;;;;;;32.20;33.10;;;;;;5069462;28;19962;-88
2022/10/28 13:42:30;;;;;;;;;;;32.20;33.30;;;;;;5068757;28;19924;-88
2022/10/28 13:45:05;;;;;;;;;;;32.20;33.40;;;;;;5050692;28;19923;-89
2022/10/28 13:47:34;;;;;;;;;;;32.10;32.80;;;;;;5067730;28;19936;-89
2022/10/28 13:50:09;;;;;;;;;;;32.00;32.70;;;;;;5068318;28;20418;-89
2022/10/28 13:52:39;;;;;;;;;;;31.80;32.70;;;;;;5068002;28;19970;-88
2022/10/28 13:55:27;;;;;;;;;;;31.70;32.70;;;;;;5075676;28;19913;-89
2022/10/28 13:58:02;;;;;;;;;;;31.70;32.70;;;;;;5064253;28;19924;-90
2022/10/28 14:00:28;;;;;;;;;;;31.60;33.00;;;;;;5066981;28;19917;-89
2022/10/28 14:02:55;;;;;;;;;;;31.50;33.20;;;;;;5069005;28;20007;-89
2022/10/28 14:05:41;;;;;;;;;;;31.50;33.30;;;;;;5066890;28;19923;-90
2022/10/28 14:08:19;;;;;;;;;;;31.40;33.30;;;;;;5066550;28;19931;-90
2022/10/28 14:11:03;;;;;;;;;;;31.30;33.30;;;;;;5061505;28;19913;-89
2022/10/28 14:13:33;;;;;;;;;;;31.30;33.40;;;;;;5051332;28;20438;-89
2022/10/28 14:16:12;;;;;;;;;;;31.20;33.60;;;;;;5050894;28;19912;-87
2022/10/28 14:18:39;;;;;;;;;;;31.10;33.60;;;;;;5053224;28;20095;-88
2022/10/28 14:21:05;;;;;;;;;;;31.10;33.80;;;;;;5052603;28;20007;-89
2022/10/28 14:23:35;;;;;;;;;;;31.00;33.80;;;;;;5053631;28;19988;-89
2022/10/28 14:26:00;;;;;;;;;;;30.90;33.80;;;;;;5052600;28;19904;-88
2022/10/28 14:28:26;;;;;;;;;;;30.90;34.10;;;;;;5052855;28;19931;-88